Time;durP1;ratioP1;P1;durP2;ratioP2;P2;SDS_P1;SDS_P2;PMS_P1;PMS_P2;Temp;Humidity;BMP_temperature;BMP_pressure;BME280_temperature;BME280_humidity;BME280_pressure;Samples;Min_cycle;Max_cycle;Signal;HPM_P1;HPM_P2
2023/05/01 00:01:43;;;;;;;1.98;1.30;;;17.40;55.70;;;;;;5072442;28;20354;-65
2023/05/01 00:04:08;;;;;;;1.33;1.23;;;17.40;55.70;;;;;;5072394;28;20177;-65
2023/05/01 00:06:34;;;;;;;2.13;1.23;;;17.40;55.70;;;;;;5071954;28;20182;-64
2023/05/01 00:09:00;;;;;;;1.92;1.40;;;17.30;55.70;;;;;;5072551;28;20578;-64
2023/05/01 00:11:25;;;;;;;1.40;1.30;;;17.30;55.60;;;;;;5072256;28;20512;-63
2023/05/01 00:13:53;;;;;;;1.30;1.20;;;17.30;55.70;;;;;;5071641;28;20256;-64
2023/05/01 00:16:18;;;;;;;2.05;1.30;;;17.30;55.80;;;;;;5072022;28;20249;-63
2023/05/01 00:18:44;;;;;;;1.50;1.40;;;17.30;55.70;;;;;;5072189;28;20649;-63
2023/05/01 00:21:09;;;;;;;1.38;1.27;;;17.30;55.80;;;;;;5071075;28;20244;-63
2023/05/01 00:23:35;;;;;;;1.48;1.23;;;17.30;55.80;;;;;;5072258;28;20253;-63
2023/05/01 00:26:00;;;;;;;2.60;1.33;;;17.30;55.70;;;;;;5072153;28;20229;-64
2023/05/01 00:28:26;;;;;;;2.03;1.15;;;17.30;55.80;;;;;;5071236;28;20175;-64
2023/05/01 00:30:51;;;;;;;1.45;1.20;;;17.30;55.90;;;;;;5072161;28;20175;-65
2023/05/01 00:33:17;;;;;;;1.42;1.33;;;17.30;55.90;;;;;;5071950;28;20224;-66
2023/05/01 00:35:44;;;;;;;2.13;1.40;;;17.30;55.90;;;;;;5071650;28;20178;-65
2023/05/01 00:38:09;;;;;;;3.00;1.65;;;17.30;55.90;;;;;;5073191;28;20174;-65
2023/05/01 00:40:43;;;;;;;1.55;1.45;;;17.30;55.90;;;;;;5076391;28;20549;-65
2023/05/01 00:43:10;;;;;;;1.30;1.20;;;17.30;55.90;;;;;;5076180;28;20282;-66
2023/05/01 00:45:36;;;;;;;1.50;1.33;;;17.30;55.90;;;;;;5076495;28;20174;-65
2023/05/01 00:48:02;;;;;;;1.60;1.40;;;17.20;55.90;;;;;;5074442;28;20182;-65
2023/05/01 00:50:28;;;;;;;1.15;1.10;;;17.20;55.80;;;;;;5075908;28;20171;-65
2023/05/01 00:52:54;;;;;;;2.53;1.40;;;17.30;55.90;;;;;;5075030;28;20253;-64
2023/05/01 00:55:20;;;;;;;1.33;1.20;;;17.30;56.00;;;;;;5073734;28;20541;-64
2023/05/01 00:57:45;;;;;;;1.45;1.08;;;17.30;56.00;;;;;;5074809;28;20649;-64
2023/05/01 01:00:12;;;;;;;1.63;1.33;;;17.20;56.00;;;;;;5074410;28;20209;-65
2023/05/01 01:02:37;;;;;;;1.52;1.42;;;17.20;55.90;;;;;;5075325;28;20611;-65
2023/05/01 01:05:04;;;;;;;1.58;1.42;;;17.20;55.90;;;;;;5075980;28;20637;-65
2023/05/01 01:07:35;;;;;;;1.50;1.40;;;17.20;55.90;;;;;;5075798;28;20186;-64
2023/05/01 01:10:08;;;;;;;1.42;1.10;;;17.20;56.00;;;;;;5073779;28;20183;-63
2023/05/01 01:12:47;;;;;;;1.67;1.23;;;17.20;56.00;;;;;;5074573;28;20637;-64
2023/05/01 01:15:22;;;;;;;1.92;1.52;;;17.20;56.00;;;;;;5074204;28;20247;-65
2023/05/01 01:18:06;;;;;;;1.83;1.20;;;17.20;56.10;;;;;;5074935;28;20186;-63
2023/05/01 01:20:51;;;;;;;1.48;1.08;;;17.30;56.10;;;;;;5075512;28;20186;-64
2023/05/01 01:23:38;;;;;;;1.83;1.40;;;17.20;56.10;;;;;;5074368;28;20563;-64
2023/05/01 01:26:41;;;;;;;1.35;1.20;;;17.20;56.00;;;;;;5075343;28;20297;-64
2023/05/01 01:29:40;;;;;;;1.88;1.30;;;17.20;56.00;;;;;;5075108;28;20244;-65
2023/05/01 01:32:14;;;;;;;1.35;1.25;;;17.20;56.00;;;;;;5073391;28;20182;-66
2023/05/01 01:34:44;;;;;;;1.90;1.48;;;17.20;56.10;;;;;;5074231;28;20177;-65
2023/05/01 01:37:21;;;;;;;1.70;1.60;;;17.20;56.00;;;;;;5074312;28;20657;-65
2023/05/01 01:39:52;;;;;;;1.90;1.65;;;17.20;56.00;;;;;;5073932;28;20674;-65
2023/05/01 01:42:21;;;;;;;1.27;1.27;;;17.20;56.00;;;;;;5073675;28;20665;-65
2023/05/01 01:44:57;;;;;;;1.27;1.13;;;17.20;56.10;;;;;;5073326;28;20208;-65
2023/05/01 01:47:32;;;;;;;1.30;1.20;;;17.20;56.20;;;;;;5073550;28;20177;-65
2023/05/01 01:50:00;;;;;;;2.25;1.50;;;17.20;56.10;;;;;;5072653;28;20253;-64
2023/05/01 01:52:26;;;;;;;1.02;1.00;;;17.20;56.10;;;;;;5073002;28;20182;-65
2023/05/01 01:54:54;;;;;;;1.40;1.30;;;17.10;56.10;;;;;;5073925;28;20174;-64
2023/05/01 01:57:20;;;;;;;1.58;1.40;;;17.20;56.20;;;;;;5074673;28;20178;-65
2023/05/01 01:59:47;;;;;;;1.45;1.35;;;17.20;56.20;;;;;;5073016;28;20181;-65
2023/05/01 02:02:14;;;;;;;1.00;0.90;;;17.10;56.10;;;;;;5073392;28;20198;-66
2023/05/01 02:04:39;;;;;;;2.00;1.20;;;17.10;56.00;;;;;;5074588;28;20182;-65
2023/05/01 02:07:05;;;;;;;1.67;1.20;;;17.10;56.10;;;;;;5072649;28;20174;-64
2023/05/01 02:09:30;;;;;;;1.20;1.10;;;17.10;56.10;;;;;;5074835;28;20170;-64
2023/05/01 02:11:56;;;;;;;1.45;1.35;;;17.10;56.00;;;;;;5073426;28;20184;-64
2023/05/01 02:14:23;;;;;;;2.03;1.40;;;17.10;56.10;;;;;;5072414;28;20170;-64
2023/05/01 02:16:49;;;;;;;1.20;1.13;;;17.10;56.10;;;;;;5073185;28;20185;-64
2023/05/01 02:19:14;;;;;;;1.60;1.50;;;17.10;56.10;;;;;;5072202;28;20167;-64
2023/05/01 02:21:40;;;;;;;1.60;1.50;;;17.10;56.20;;;;;;5074252;28;20305;-64
2023/05/01 02:24:05;;;;;;;1.45;1.30;;;17.10;56.30;;;;;;5072865;28;20171;-63
2023/05/01 02:26:32;;;;;;;1.67;1.50;;;17.10;56.30;;;;;;5072324;28;20230;-64
2023/05/01 02:28:58;;;;;;;1.52;1.35;;;17.10;56.30;;;;;;5073106;28;20609;-65
2023/05/01 02:31:23;;;;;;;1.83;1.45;;;17.10;56.30;;;;;;5073988;28;20537;-66
2023/05/01 02:33:49;;;;;;;2.08;1.40;;;17.10;56.30;;;;;;5073516;28;20640;-65
2023/05/01 02:36:14;;;;;;;1.33;1.10;;;17.10;56.30;;;;;;5073991;28;20169;-65
2023/05/01 02:38:40;;;;;;;1.42;1.30;;;17.10;56.20;;;;;;5074155;28;20201;-64
2023/05/01 02:41:06;;;;;;;1.35;1.25;;;17.10;56.20;;;;;;5071971;28;20176;-66
2023/05/01 02:43:32;;;;;;;2.20;1.73;;;17.10;56.20;;;;;;5074140;28;20182;-66
2023/05/01 02:45:58;;;;;;;1.48;1.23;;;17.10;56.20;;;;;;5072773;28;20170;-65
2023/05/01 02:48:26;;;;;;;1.33;1.23;;;17.10;56.20;;;;;;5071652;28;20562;-65
2023/05/01 02:50:52;;;;;;;1.38;1.27;;;17.10;56.30;;;;;;5073878;28;20554;-65
2023/05/01 02:53:21;;;;;;;1.52;1.30;;;17.00;56.30;;;;;;5073743;28;20206;-65
2023/05/01 02:55:47;;;;;;;1.65;1.42;;;17.00;56.20;;;;;;5072021;28;20244;-64
2023/05/01 02:58:19;;;;;;;1.92;1.63;;;17.00;56.20;;;;;;5072221;28;20205;-65
2023/05/01 03:00:44;;;;;;;1.40;1.30;;;17.10;56.10;;;;;;5073322;28;20261;-64
2023/05/01 03:03:10;;;;;;;1.17;1.05;;;17.10;56.20;;;;;;5072779;28;20339;-65
2023/05/01 03:05:37;;;;;;;2.05;1.38;;;17.00;56.20;;;;;;5073752;28;20174;-64
2023/05/01 03:08:03;;;;;;;1.98;1.23;;;17.10;56.10;;;;;;5073597;28;20197;-64
2023/05/01 03:10:28;;;;;;;1.77;1.25;;;17.10;56.10;;;;;;5072609;28;20182;-64
2023/05/01 03:12:54;;;;;;;1.63;1.35;;;17.00;56.10;;;;;;5073537;28;20185;-63
2023/05/01 03:15:20;;;;;;;1.95;1.67;;;17.00;56.20;;;;;;5073000;28;20261;-64
2023/05/01 03:17:45;;;;;;;1.65;1.40;;;17.00;56.20;;;;;;5072530;28;20265;-64
2023/05/01 03:20:11;;;;;;;1.50;1.40;;;17.00;56.20;;;;;;5073227;28;20171;-64
2023/05/01 03:22:36;;;;;;;1.40;1.30;;;17.00;56.20;;;;;;5072830;28;20217;-64
2023/05/01 03:25:03;;;;;;;1.70;1.60;;;17.00;56.10;;;;;;5073326;28;20178;-63
2023/05/01 03:27:29;;;;;;;2.13;1.48;;;17.00;56.10;;;;;;5072783;28;20700;-64
2023/05/01 03:29:55;;;;;;;1.38;1.25;;;17.00;56.10;;;;;;5072505;28;20182;-65
2023/05/01 03:32:21;;;;;;;1.50;1.40;;;17.00;56.10;;;;;;5073032;28;20176;-66
2023/05/01 03:34:47;;;;;;;1.50;1.40;;;17.00;56.20;;;;;;5073486;28;20226;-65
2023/05/01 03:37:12;;;;;;;1.30;1.20;;;17.00;56.20;;;;;;5072122;28;20612;-64
2023/05/01 03:39:38;;;;;;;1.77;1.63;;;17.00;56.20;;;;;;5073088;28;20181;-65
2023/05/01 03:42:04;;;;;;;2.83;1.42;;;17.00;56.20;;;;;;5072825;28;20224;-65
2023/05/01 03:44:29;;;;;;;1.70;1.30;;;17.00;56.80;;;;;;5071831;28;20201;-65
2023/05/01 03:46:55;;;;;;;1.80;1.60;;;17.00;56.20;;;;;;5072748;28;20201;-65
2023/05/01 03:49:21;;;;;;;1.20;1.10;;;17.00;56.20;;;;;;5072591;28;20192;-64
2023/05/01 03:51:46;;;;;;;1.45;1.30;;;17.00;56.40;;;;;;5072170;28;20178;-65
2023/05/01 03:54:12;;;;;;;1.70;1.60;;;17.00;56.30;;;;;;5072536;28;20621;-64
2023/05/01 03:56:37;;;;;;;1.40;1.30;;;17.00;56.30;;;;;;5072649;28;20175;-65
2023/05/01 03:59:03;;;;;;;1.75;1.63;;;17.00;56.40;;;;;;5071806;28;20536;-65
2023/05/01 04:01:28;;;;;;;1.40;1.30;;;17.00;56.40;;;;;;5072142;28;20194;-65
2023/05/01 04:03:54;;;;;;;2.17;1.50;;;16.90;56.30;;;;;;5072656;28;20180;-65
2023/05/01 04:06:21;;;;;;;1.60;1.50;;;16.90;56.30;;;;;;5071684;28;20255;-64
2023/05/01 04:08:46;;;;;;;1.48;1.33;;;16.90;56.30;;;;;;5072481;28;20182;-64
2023/05/01 04:11:12;;;;;;;1.40;1.30;;;16.90;56.20;;;;;;5072081;28;20536;-64
2023/05/01 04:13:37;;;;;;;1.50;1.40;;;16.90;56.20;;;;;;5071008;28;20170;-64
2023/05/01 04:16:03;;;;;;;1.60;1.50;;;17.00;56.30;;;;;;5072262;28;20537;-64
2023/05/01 04:18:29;;;;;;;2.00;1.38;;;17.00;56.30;;;;;;5072081;28;20175;-64
2023/05/01 04:20:54;;;;;;;1.63;1.52;;;16.90;56.40;;;;;;5071596;28;20178;-64
2023/05/01 04:23:20;;;;;;;1.50;1.40;;;16.90;56.30;;;;;;5071725;28;20210;-63
2023/05/01 04:25:46;;;;;;;1.27;1.17;;;16.90;56.30;;;;;;5071417;28;20308;-64
2023/05/01 04:28:12;;;;;;;1.50;1.40;;;16.90;56.30;;;;;;5072192;28;20222;-65
2023/05/01 04:30:37;;;;;;;2.30;1.88;;;16.90;56.30;;;;;;5072491;28;20174;-65
2023/05/01 04:33:09;;;;;;;1.85;1.70;;;16.90;56.30;;;;;;5071562;28;20178;-66
2023/05/01 04:35:35;;;;;;;1.50;1.40;;;16.90;56.30;;;;;;5072041;28;20189;-66
2023/05/01 04:38:01;;;;;;;1.30;1.20;;;16.90;56.30;;;;;;5072071;28;20185;-65
2023/05/01 04:40:26;;;;;;;1.35;1.25;;;16.90;56.30;;;;;;5070999;28;20174;-65
2023/05/01 04:42:52;;;;;;;2.15;1.60;;;16.90;56.30;;;;;;5071936;28;20217;-65
2023/05/01 04:45:20;;;;;;;2.10;1.30;;;16.90;56.20;;;;;;5071492;28;20610;-65
2023/05/01 04:47:46;;;;;;;1.50;1.40;;;16.90;56.30;;;;;;5071458;28;20167;-65
2023/05/01 04:50:11;;;;;;;2.47;1.48;;;16.90;56.20;;;;;;5071845;28;20174;-65
2023/05/01 04:52:37;;;;;;;1.42;1.33;;;16.90;56.20;;;;;;5071926;28;20231;-65
2023/05/01 04:55:03;;;;;;;1.63;1.50;;;16.90;56.30;;;;;;5071260;28;20174;-64
2023/05/01 04:57:28;;;;;;;1.77;1.45;;;16.90;56.20;;;;;;5071493;28;20684;-65
2023/05/01 04:59:54;;;;;;;1.40;1.30;;;16.90;56.20;;;;;;5072158;28;20182;-65
2023/05/01 05:02:20;;;;;;;1.27;1.10;;;16.90;56.30;;;;;;5070790;28;20210;-65
2023/05/01 05:04:45;;;;;;;1.63;1.52;;;16.90;56.20;;;;;;5072048;28;20174;-64
2023/05/01 05:07:11;;;;;;;1.70;1.60;;;16.90;56.20;;;;;;5071688;28;20175;-65
2023/05/01 05:09:37;;;;;;;3.28;1.60;;;16.90;56.20;;;;;;5069768;28;20617;-64
2023/05/01 05:12:03;;;;;;;1.55;1.45;;;16.90;56.20;;;;;;5071641;28;20641;-64
2023/05/01 05:14:29;;;;;;;1.77;1.63;;;16.90;56.20;;;;;;5071257;28;20174;-64
2023/05/01 05:16:55;;;;;;;1.63;1.52;;;16.90;56.20;;;;;;5070966;28;20258;-63
2023/05/01 05:19:20;;;;;;;1.60;1.50;;;17.00;56.20;;;;;;5071478;28;20188;-63
2023/05/01 05:21:46;;;;;;;2.15;1.80;;;16.90;56.20;;;;;;5071749;28;20218;-64
2023/05/01 05:24:12;;;;;;;1.98;1.52;;;16.90;56.20;;;;;;5072082;28;20192;-63
2023/05/01 05:26:37;;;;;;;1.80;1.67;;;17.00;56.20;;;;;;5074023;28;20218;-63
2023/05/01 05:29:03;;;;;;;1.40;1.30;;;16.90;56.10;;;;;;5074940;28;20174;-65
2023/05/01 05:31:28;;;;;;;1.60;1.50;;;16.90;56.10;;;;;;5075301;28;20636;-65
2023/05/01 05:33:54;;;;;;;1.77;1.67;;;16.90;56.10;;;;;;5075713;28;20170;-66
2023/05/01 05:36:20;;;;;;;1.50;1.40;;;17.00;56.10;;;;;;5074456;28;20978;-66
2023/05/01 05:38:45;;;;;;;1.80;1.70;;;17.00;56.10;;;;;;5075266;28;20633;-64
2023/05/01 05:41:11;;;;;;;1.85;1.73;;;17.00;56.20;;;;;;5074824;28;20563;-65
2023/05/01 05:43:36;;;;;;;1.80;1.70;;;17.00;56.10;;;;;;5074660;28;20679;-66
2023/05/01 05:46:02;;;;;;;1.85;1.60;;;17.00;56.20;;;;;;5075186;28;20228;-65
2023/05/01 05:48:27;;;;;;;1.95;1.42;;;17.00;56.20;;;;;;5075090;28;20212;-65
2023/05/01 05:50:53;;;;;;;3.03;1.65;;;17.00;56.10;;;;;;5074595;28;20257;-64
2023/05/01 05:53:19;;;;;;;1.73;1.63;;;17.00;56.20;;;;;;5074890;28;20224;-65
2023/05/01 05:55:46;;;;;;;1.75;1.50;;;17.00;56.10;;;;;;5075052;28;20227;-65
2023/05/01 05:58:13;;;;;;;2.13;1.40;;;17.00;56.80;;;;;;5074188;28;20272;-65
2023/05/01 06:00:38;;;;;;;1.58;1.40;;;17.00;56.20;;;;;;5075077;28;20257;-65
2023/05/01 06:03:04;;;;;;;2.35;1.58;;;17.00;56.10;;;;;;5074931;28;20281;-66
2023/05/01 06:05:30;;;;;;;1.88;1.77;;;17.00;56.10;;;;;;5074215;28;20182;-65
2023/05/01 06:07:55;;;;;;;1.70;1.60;;;17.00;56.10;;;;;;5073752;28;20261;-64
2023/05/01 06:10:21;;;;;;;1.73;1.45;;;17.00;56.10;;;;;;5075102;28;20224;-64
2023/05/01 06:12:47;;;;;;;1.50;1.40;;;17.00;56.10;;;;;;5074834;28;20269;-65
2023/05/01 06:15:15;;;;;;;1.70;1.60;;;17.00;56.10;;;;;;5074777;28;20534;-65
2023/05/01 06:17:41;;;;;;;2.03;1.50;;;17.00;56.10;;;;;;5074955;28;20547;-65
2023/05/01 06:20:08;;;;;;;1.90;1.50;;;17.00;56.10;;;;;;5072743;28;20175;-64
2023/05/01 06:22:33;;;;;;;1.48;1.38;;;17.00;56.10;;;;;;5073755;28;20210;-64
2023/05/01 06:24:59;;;;;;;1.83;1.70;;;17.00;56.00;;;;;;5074850;28;20520;-63
2023/05/01 06:27:25;;;;;;;1.52;1.42;;;17.10;56.00;;;;;;5073653;28;20295;-65
2023/05/01 06:29:50;;;;;;;1.58;1.48;;;17.00;55.90;;;;;;5074928;28;20174;-65
2023/05/01 06:32:16;;;;;;;1.83;1.60;;;17.00;56.00;;;;;;5074727;28;20178;-66
2023/05/01 06:34:41;;;;;;;2.08;1.80;;;17.10;56.00;;;;;;5073979;28;20174;-66
2023/05/01 06:37:07;;;;;;;2.08;1.70;;;17.00;56.00;;;;;;5073440;28;20218;-65
2023/05/01 06:39:33;;;;;;;1.80;1.67;;;17.10;56.00;;;;;;5073764;28;20170;-66
2023/05/01 06:41:58;;;;;;;2.28;1.55;;;17.00;55.90;;;;;;5074702;28;20214;-62
2023/05/01 06:44:24;;;;;;;2.92;1.90;;;17.00;55.90;;;;;;5074317;28;20917;-62
2023/05/01 06:46:49;;;;;;;2.72;1.80;;;17.00;55.90;;;;;;5073832;28;20205;-66
2023/05/01 06:49:15;;;;;;;2.05;1.85;;;17.00;56.00;;;;;;5074123;28;20262;-64
2023/05/01 06:51:40;;;;;;;4.10;1.50;;;17.00;56.10;;;;;;5074493;28;20257;-68
2023/05/01 06:54:06;;;;;;;2.22;1.40;;;17.00;56.10;;;;;;5073426;28;20201;-64
2023/05/01 06:56:32;;;;;;;3.15;1.50;;;17.10;56.20;;;;;;5074535;28;20182;-63
2023/05/01 06:58:57;;;;;;;3.17;1.75;;;17.10;56.10;;;;;;5074406;28;20171;-63
2023/05/01 07:01:23;;;;;;;2.97;1.80;;;17.10;56.20;;;;;;5073254;28;20217;-63
2023/05/01 07:03:48;;;;;;;2.38;1.80;;;17.10;56.20;;;;;;5074281;28;20179;-63
2023/05/01 07:06:14;;;;;;;1.98;1.65;;;17.10;56.20;;;;;;5073723;28;20212;-62
2023/05/01 07:08:39;;;;;;;4.63;2.20;;;17.10;56.20;;;;;;5073432;28;20182;-62
2023/05/01 07:11:06;;;;;;;2.50;1.70;;;17.10;56.30;;;;;;5073942;28;20236;-62
2023/05/01 07:13:31;;;;;;;3.13;1.77;;;17.10;56.40;;;;;;5072927;28;20170;-62
2023/05/01 07:15:57;;;;;;;2.67;1.80;;;17.20;56.10;;;;;;5073071;28;20531;-62
2023/05/01 07:18:22;;;;;;;4.95;1.77;;;17.10;56.20;;;;;;5073588;28;20621;-65
2023/05/01 07:20:49;;;;;;;3.00;1.42;;;17.10;56.50;;;;;;5073524;28;20174;-63
2023/05/01 07:23:14;;;;;;;3.17;1.77;;;17.10;56.30;;;;;;5072442;28;20233;-64
2023/05/01 07:25:40;;;;;;;2.80;1.70;;;17.10;56.30;;;;;;5073780;28;20724;-63
2023/05/01 07:28:06;;;;;;;2.45;1.75;;;17.10;56.30;;;;;;5073466;28;20232;-65
2023/05/01 07:30:32;;;;;;;5.07;1.90;;;17.10;56.30;;;;;;5073028;28;20210;-66
2023/05/01 07:32:58;;;;;;;2.72;1.92;;;17.10;56.40;;;;;;5073660;28;20212;-66
2023/05/01 07:35:23;;;;;;;3.53;1.80;;;17.10;56.30;;;;;;5073240;28;20178;-66
2023/05/01 07:37:50;;;;;;;2.95;1.48;;;17.10;56.40;;;;;;5072943;28;20167;-65
2023/05/01 07:40:16;;;;;;;2.65;1.60;;;17.10;56.40;;;;;;5073415;28;20193;-66
2023/05/01 07:42:42;;;;;;;2.15;1.77;;;17.10;56.40;;;;;;5072541;28;20222;-66
2023/05/01 07:45:08;;;;;;;3.30;1.85;;;17.10;56.40;;;;;;5073288;28;20189;-65
2023/05/01 07:47:33;;;;;;;2.15;1.73;;;17.10;56.40;;;;;;5072529;28;20185;-65
2023/05/01 07:49:59;;;;;;;4.32;2.03;;;17.10;56.30;;;;;;5072760;28;20174;-65
2023/05/01 07:52:25;;;;;;;4.32;1.88;;;17.10;56.30;;;;;;5073001;28;20230;-65
2023/05/01 07:54:51;;;;;;;4.60;1.92;;;17.20;56.30;;;;;;5073384;28;20636;-64
2023/05/01 07:57:16;;;;;;;2.00;1.80;;;17.20;56.20;;;;;;5072329;28;20223;-65
2023/05/01 07:59:42;;;;;;;3.53;1.55;;;17.20;56.10;;;;;;5073082;28;20582;-66
2023/05/01 08:02:07;;;;;;;1.75;1.65;;;17.20;56.10;;;;;;5072521;28;20219;-65
2023/05/01 08:04:33;;;;;;;3.05;1.70;;;17.30;56.10;;;;;;5072406;28;20170;-65
2023/05/01 08:06:58;;;;;;;3.88;1.70;;;17.30;56.10;;;;;;5073101;28;20265;-64
2023/05/01 08:09:24;;;;;;;2.05;1.73;;;17.30;55.90;;;;;;5072567;28;20204;-64
2023/05/01 08:11:50;;;;;;;4.07;1.60;;;17.40;55.90;;;;;;5072422;28;20174;-64
2023/05/01 08:14:16;;;;;;;3.58;1.88;;;17.40;55.90;;;;;;5072758;28;20198;-64
2023/05/01 08:16:42;;;;;;;1.80;1.70;;;17.40;55.90;;;;;;5072949;28;20178;-64
2023/05/01 08:19:07;;;;;;;1.80;1.70;;;17.40;55.90;;;;;;5071932;28;20617;-65
2023/05/01 08:21:33;;;;;;;2.45;1.90;;;17.40;55.90;;;;;;5072730;28;20237;-65
2023/05/01 08:23:59;;;;;;;2.97;1.90;;;17.40;55.90;;;;;;5073062;28;20537;-65
2023/05/01 08:26:24;;;;;;;1.92;1.67;;;17.40;55.90;;;;;;5071667;28;20333;-64
2023/05/01 08:28:50;;;;;;;2.03;1.65;;;17.40;55.90;;;;;;5072872;28;20209;-65
2023/05/01 08:31:15;;;;;;;1.92;1.77;;;17.40;55.90;;;;;;5072373;28;20170;-66
2023/05/01 08:33:42;;;;;;;1.92;1.60;;;17.50;55.80;;;;;;5071940;28;20173;-67
2023/05/01 08:36:09;;;;;;;2.88;1.55;;;17.50;55.90;;;;;;5072538;28;20209;-66
2023/05/01 08:38:35;;;;;;;3.55;2.10;;;17.40;55.80;;;;;;5072554;28;20621;-65
2023/05/01 08:41:02;;;;;;;3.42;2.08;;;17.50;55.90;;;;;;5072125;28;20303;-65
2023/05/01 08:43:30;;;;;;;1.90;1.42;;;17.50;56.00;;;;;;5072284;28;20210;-65
2023/05/01 08:45:57;;;;;;;2.10;1.83;;;17.40;55.90;;;;;;5072348;28;20202;-65
2023/05/01 08:48:23;;;;;;;3.72;1.90;;;17.50;56.00;;;;;;5071243;28;20174;-66
2023/05/01 08:50:48;;;;;;;3.90;2.05;;;17.50;55.90;;;;;;5072511;28;20529;-64
2023/05/01 08:53:17;;;;;;;2.33;1.50;;;17.50;55.80;;;;;;5071531;28;20177;-65
2023/05/01 08:55:44;;;;;;;2.33;1.52;;;17.60;55.80;;;;;;5054582;28;20632;-65
2023/05/01 08:58:10;;;;;;;3.47;1.80;;;17.60;55.80;;;;;;5072191;28;20182;-65
2023/05/01 09:00:36;;;;;;;2.08;1.65;;;17.60;55.80;;;;;;5057698;28;20175;-65
2023/05/01 09:03:02;;;;;;;2.90;1.90;;;17.70;55.80;;;;;;5075297;28;20233;-65
2023/05/01 09:05:28;;;;;;;1.92;1.73;;;17.60;55.70;;;;;;5058190;28;20215;-65
2023/05/01 09:07:54;;;;;;;2.08;1.80;;;17.70;55.80;;;;;;5074320;28;20629;-64
2023/05/01 09:10:19;;;;;;;2.67;1.83;;;17.70;55.70;;;;;;5074987;28;20185;-64
2023/05/01 09:12:48;;;;;;;1.90;1.80;;;17.70;56.30;;;;;;5076345;28;20546;-64
2023/05/01 09:15:13;;;;;;;2.35;2.00;;;17.80;55.70;;;;;;5075218;28;20202;-64
2023/05/01 09:17:39;;;;;;;1.80;1.70;;;17.80;55.60;;;;;;5074853;28;20663;-64
2023/05/01 09:20:06;;;;;;;2.80;1.95;;;17.90;55.60;;;;;;5074824;28;20220;-64
2023/05/01 09:22:32;;;;;;;2.03;1.88;;;17.90;55.60;;;;;;5074189;28;20217;-64
2023/05/01 09:24:58;;;;;;;4.20;2.38;;;17.90;55.70;;;;;;5076082;28;20170;-63
2023/05/01 09:27:24;;;;;;;2.58;1.88;;;17.90;55.80;;;;;;5075479;28;20233;-64
2023/05/01 09:29:49;;;;;;;2.22;1.90;;;17.90;55.90;;;;;;5073839;28;20540;-65
2023/05/01 09:32:23;;;;;;;2.03;1.75;;;17.90;56.00;;;;;;5075589;28;20190;-66
2023/05/01 09:34:50;;;;;;;4.72;1.58;;;17.90;55.90;;;;;;5076093;28;20198;-65
2023/05/01 09:37:29;;;;;;;6.38;2.10;;;17.90;55.90;;;;;;5074948;28;20182;-66
2023/05/01 09:40:08;;;;;;;2.30;1.63;;;17.90;56.60;;;;;;5075889;28;20170;-64
2023/05/01 09:42:35;;;;;;;2.28;1.70;;;17.90;56.00;;;;;;5075034;28;20206;-65
2023/05/01 09:45:01;;;;;;;1.77;1.50;;;17.90;56.10;;;;;;5075526;28;20182;-66
2023/05/01 09:47:28;;;;;;;2.17;1.70;;;17.90;56.10;;;;;;5073945;28;20680;-66
2023/05/01 09:49:54;;;;;;;3.85;1.95;;;18.00;56.00;;;;;;5074942;28;20296;-65
2023/05/01 09:52:20;;;;;;;2.10;1.90;;;18.00;56.00;;;;;;5075230;28;20178;-65
2023/05/01 09:54:46;;;;;;;2.05;1.80;;;18.10;56.00;;;;;;5075489;28;20177;-64
2023/05/01 09:57:12;;;;;;;3.10;1.90;;;18.10;55.90;;;;;;5074408;28;20187;-66
2023/05/01 09:59:38;;;;;;;3.58;2.00;;;18.20;55.90;;;;;;5075008;28;20613;-67
2023/05/01 10:02:03;;;;;;;2.67;1.60;;;18.20;55.90;;;;;;5075179;28;20695;-66
2023/05/01 10:04:30;;;;;;;2.28;1.65;;;18.20;55.90;;;;;;5073444;28;20170;-65
2023/05/01 10:06:56;;;;;;;1.70;1.60;;;18.20;55.80;;;;;;5074301;28;20186;-65
2023/05/01 10:09:28;;;;;;;2.70;1.90;;;18.30;55.90;;;;;;5073879;28;20171;-64
2023/05/01 10:11:58;;;;;;;4.65;2.10;;;18.30;55.80;;;;;;5073509;28;20185;-65
2023/05/01 10:14:25;;;;;;;2.42;1.58;;;18.30;55.90;;;;;;5074620;28;20178;-65
2023/05/01 10:16:52;;;;;;;1.80;1.70;;;18.30;55.90;;;;;;5075075;28;20590;-64
2023/05/01 10:19:17;;;;;;;2.78;1.73;;;18.30;56.00;;;;;;5073959;28;20634;-66
2023/05/01 10:21:43;;;;;;;1.77;1.67;;;18.30;56.00;;;;;;5073759;28;20210;-60
2023/05/01 10:24:09;;;;;;;1.77;1.60;;;18.30;56.00;;;;;;5074573;28;20630;-60
2023/05/01 10:26:35;;;;;;;1.63;1.50;;;18.40;55.90;;;;;;5056229;28;20230;-60
2023/05/01 10:29:01;;;;;;;2.80;1.50;;;18.50;55.90;;;;;;5075056;28;20170;-62
2023/05/01 10:31:28;;;;;;;1.70;1.60;;;18.50;55.90;;;;;;5072994;28;20265;-66
2023/05/01 10:33:54;;;;;;;2.20;1.75;;;18.50;55.80;;;;;;5074784;28;20213;-62
2023/05/01 10:36:24;;;;;;;1.60;1.48;;;18.60;55.80;;;;;;5074283;28;20204;-62
2023/05/01 10:38:50;;;;;;;3.08;1.63;;;18.60;55.70;;;;;;5073860;28;20248;-61
2023/05/01 10:41:15;;;;;;;1.85;1.73;;;18.70;55.80;;;;;;5074114;28;20178;-62
2023/05/01 10:43:41;;;;;;;2.25;1.73;;;18.70;55.80;;;;;;5074598;28;20218;-61
2023/05/01 10:46:07;;;;;;;2.58;2.00;;;18.70;55.80;;;;;;5073646;28;20174;-62
2023/05/01 10:48:42;;;;;;;3.13;1.75;;;18.70;55.80;;;;;;5074509;28;20549;-62
2023/05/01 10:51:09;;;;;;;4.82;1.90;;;18.70;55.80;;;;;;5073983;28;20632;-63
2023/05/01 10:53:35;;;;;;;2.05;1.60;;;18.80;55.80;;;;;;5073663;28;20178;-63
2023/05/01 10:56:02;;;;;;;4.57;1.70;;;18.80;55.80;;;;;;5074512;28;20170;-64
2023/05/01 10:58:37;;;;;;;2.03;1.55;;;18.80;56.00;;;;;;5074127;28;20524;-63
2023/05/01 11:01:33;;;;;;;4.68;2.00;;;18.80;56.00;;;;;;5073558;28;20231;-64
2023/05/01 11:04:17;;;;;;;2.95;1.73;;;18.80;56.10;;;;;;5073949;28;20685;-63
2023/05/01 11:07:03;;;;;;;2.25;1.50;;;18.80;56.30;;;;;;5073411;28;20204;-63
2023/05/01 11:09:38;;;;;;;3.92;1.50;;;18.80;56.30;;;;;;5072842;28;20179;-63
2023/05/01 11:12:04;;;;;;;2.25;1.48;;;18.80;56.40;;;;;;5074010;28;20178;-63
2023/05/01 11:15:09;;;;;;;1.70;1.60;;;18.80;56.40;;;;;;5073208;28;20171;-63
2023/05/01 11:17:40;;;;;;;3.50;1.60;;;18.90;56.40;;;;;;5031742;28;20245;-63
2023/05/01 11:20:13;;;;;;;1.60;1.50;;;18.90;56.40;;;;;;5029981;28;20176;-63
2023/05/01 11:22:46;;;;;;;3.15;1.60;;;18.90;56.30;;;;;;5044431;28;20222;-63
2023/05/01 11:25:21;;;;;;;2.83;1.50;;;18.90;56.40;;;;;;5075198;28;20202;-64
2023/05/01 11:27:51;;;;;;;3.70;1.90;;;18.90;56.40;;;;;;5075236;28;20201;-63
2023/05/01 11:30:17;;;;;;;1.60;1.50;;;18.90;56.40;;;;;;5093789;28;20267;-64
2023/05/01 11:32:43;;;;;;;2.88;1.70;;;18.90;56.40;;;;;;5093992;28;20628;-64
2023/05/01 11:35:22;;;;;;;2.08;1.77;;;18.90;56.40;;;;;;5092885;28;20177;-65
2023/05/01 11:37:49;;;;;;;3.45;2.10;;;18.90;56.40;;;;;;5079010;28;20182;-64
2023/05/01 11:40:20;;;;;;;1.48;1.38;;;18.90;56.30;;;;;;5073245;28;20603;-64
2023/05/01 11:42:45;;;;;;;3.45;1.85;;;19.00;56.20;;;;;;5072683;28;20300;-64
2023/05/01 11:45:11;;;;;;;1.95;1.52;;;18.90;56.20;;;;;;5073282;28;20262;-64
2023/05/01 11:47:37;;;;;;;2.22;1.35;;;18.90;56.20;;;;;;5073397;28;20583;-64
2023/05/01 11:50:05;;;;;;;2.45;1.48;;;18.90;56.20;;;;;;5072521;28;20269;-63
2023/05/01 11:52:44;;;;;;;1.83;1.42;;;18.90;56.20;;;;;;5073791;28;20266;-63
2023/05/01 11:55:10;;;;;;;1.55;1.40;;;18.90;56.20;;;;;;5090024;28;20654;-63
2023/05/01 11:57:49;;;;;;;1.63;1.40;;;18.80;56.30;;;;;;5092563;28;20212;-64
2023/05/01 12:00:15;;;;;;;2.28;1.58;;;18.70;56.40;;;;;;5092768;28;20186;-64
2023/05/01 12:03:02;;;;;;;2.53;1.70;;;18.60;56.40;;;;;;5093319;28;20241;-64
2023/05/01 12:05:29;;;;;;;2.45;1.40;;;18.60;56.50;;;;;;5092892;28;20170;-64
2023/05/01 12:08:21;;;;;;;2.60;1.92;;;18.60;56.60;;;;;;5093120;28;20185;-63
2023/05/01 12:10:48;;;;;;;2.63;1.73;;;18.50;56.50;;;;;;5090293;28;20273;-62
2023/05/01 12:13:14;;;;;;;1.67;1.27;;;18.50;56.70;;;;;;5091395;28;20525;-63
2023/05/01 12:15:44;;;;;;;2.20;1.70;;;18.50;56.70;;;;;;5091774;28;20169;-63
2023/05/01 12:18:11;;;;;;;1.88;1.60;;;18.50;56.70;;;;;;5090582;28;20687;-64
2023/05/01 12:20:44;;;;;;;1.60;1.50;;;18.40;56.60;;;;;;5091505;28;20559;-63
2023/05/01 12:23:10;;;;;;;1.92;1.73;;;18.40;56.60;;;;;;5092498;28;20274;-64
2023/05/01 12:25:39;;;;;;;2.33;1.63;;;18.40;56.50;;;;;;5092118;28;20172;-62
2023/05/01 12:28:18;;;;;;;3.05;1.65;;;18.40;56.50;;;;;;5085777;28;20178;-63
2023/05/01 12:30:47;;;;;;;1.60;1.50;;;18.40;56.40;;;;;;5072836;28;20179;-64
2023/05/01 12:33:15;;;;;;;2.72;1.80;;;18.30;56.30;;;;;;5071425;28;20198;-65
2023/05/01 12:35:42;;;;;;;2.60;1.63;;;18.30;56.30;;;;;;5072505;28;20235;-63
2023/05/01 12:38:20;;;;;;;1.92;1.67;;;18.30;56.30;;;;;;5071840;28;20181;-64
2023/05/01 12:40:51;;;;;;;2.03;1.65;;;18.30;56.30;;;;;;5072859;28;20192;-64
2023/05/01 12:43:18;;;;;;;3.53;1.50;;;18.30;56.30;;;;;;5072279;28;20214;-65
2023/05/01 12:45:43;;;;;;;2.90;1.67;;;18.30;56.30;;;;;;5071888;28;20185;-64
2023/05/01 12:48:12;;;;;;;1.70;1.60;;;18.30;56.30;;;;;;5070658;28;20179;-63
2023/05/01 12:50:37;;;;;;;2.35;1.30;;;18.30;56.30;;;;;;5072469;28;20534;-64